ADDS METAR Data INFO
IDs: Format: Raw Decoded Include TAF

Data at: 1359 UTC 17 Dec 2017

KGHB 171355Z AUTO 16015KT 6SM BR OVC070 24/22 A3008 RMK A01
KGHB 171335Z AUTO 16014KT 6SM BR OVC070 24/22 A3007 RMK A01
KGHB 171315Z AUTO 17011G19KT 6SM BR FEW020 BKN070 24/22 A3007 RMK A01
KGHB 171255Z AUTO 17016G23KT 6SM BR FEW018 FEW023 BKN070 24/22 A3006 RMK A01
KGHB 171235Z AUTO 17016KT 5SM BR FEW031 OVC070 24/22 A3006 RMK A01
KGHB 171215Z AUTO 17016G21KT 5SM BR SCT031 OVC075 24/22 A3005 RMK A01
KGHB 171155Z AUTO 16016KT 5SM BR SCT030 BKN065 OVC075 24/22 A3005 RMK A01
KGHB 171135Z AUTO 18009G16KT 5SM BR FEW035 SCT055 OVC065 24/22 A3006 RMK A01
KGHB 171115Z AUTO 18011G16KT 5SM BR BKN036 OVC060 24/22 A3005 RMK A01
KGHB 171055Z AUTO 18011G18KT 5SM BR FEW017 OVC036 24/22 A3005 RMK A01
KGHB 171035Z AUTO 18011G16KT 150V210 5SM HZ BKN017 BKN041 OVC050 24/22 A3005 RMK A01
KGHB 171015Z AUTO 18010G19KT 6SM HZ SCT018 BKN041 OVC055 24/22 A3004 RMK A01
KGHB 170955Z AUTO 17013G22KT 7SM FEW025 SCT042 BKN050 24/22 A3003 RMK A01
KGHB 170935Z AUTO 16018G24KT 7SM BKN025 BKN044 OVC050 24/22 A3003 RMK A01
KGHB 170915Z AUTO 17017G23KT 7SM OVC050 24/21 A3004 RMK A01
KGHB 170855Z AUTO 15018KT 7SM OVC050 24/21 A3003 RMK A01
KGHB 170835Z AUTO 15017G25KT 6SM HZ BKN044 OVC050 24/22 A3003 RMK A01
KGHB 170815Z AUTO 14012G21KT 6SM BR BKN044 OVC050 24/22 A3003 RMK A01
KGHB 170755Z AUTO 14010G21KT 090V170 6SM HZ OVC044 24/22 A3003 RMK A01
KGHB 170735Z AUTO 14008G18KT 080V170 7SM SCT046 24/21 A3003 RMK A01
KGHB 170715Z AUTO VRB06G16KT 7SM CLR 24/21 A3002 RMK A01
KGHB 170655Z AUTO VRB06G15KT CLR 24/21 A3002 RMK A01
KGHB 170635Z AUTO VRB06G18KT 8SM SCT042 SCT090 24/21 A3004 RMK A01
KGHB 170615Z AUTO VRB07G19KT 9SM SCT043 BKN075 BKN090 24/21 A3005 RMK A01
KGHB 170555Z AUTO 14007G20KT 060V180 9SM FEW044 SCT075 OVC090 24/21 A3007 RMK A01
KGHB 170535Z AUTO VRB06G17KT 8SM OVC090 24/21 A3008 RMK A01
KGHB 170515Z AUTO VRB05G16KT 8SM OVC090 24/21 A3008 RMK A01
KGHB 170455Z AUTO VRB05G13KT 9SM OVC090 24/21 A3008 RMK A01
KGHB 170435Z AUTO VRB04G12KT 9SM OVC090 24/21 A3008 RMK A01
KGHB 170415Z AUTO 14008G19KT 110V250 9SM BKN090 24/21 A3007 RMK A01
KGHB 170355Z AUTO 12009G15KT 110V170 9SM BKN090 24/21 A3007 RMK A01
KGHB 170335Z AUTO 13009G16KT 110V200 9SM OVC090 24/21 A3008 RMK A01
KGHB 170315Z AUTO 13009G19KT 6SM BR FEW012 FEW027 OVC090 24/22 A3008 RMK A01
KGHB 170255Z AUTO VRB07G16KT 7SM FEW012 SCT028 OVC090 23/22 A3008 RMK A01
KGHB 170235Z AUTO 13009G18KT 080V200 8SM FEW015 OVC090 23/21 A3008 RMK A01
KGHB 170215Z AUTO VRB07G18KT 8SM FEW015 FEW075 OVC090 23/21 A3008 RMK A01
KGHB 170155Z AUTO VRB05G14KT 8SM FEW075 OVC090 23/21 A3008 RMK A01
KGHB 170135Z AUTO 12011G20KT 090V180 8SM FEW014 SCT028 OVC090 23/21 A3008 RMK A01
KGHB 170115Z AUTO VRB12G23KT 9SM FEW015 BKN025 OVC095 23/21 A3008 RMK A01
KGHB 170055Z AUTO 12010G24KT 090V180 9SM FEW018 BKN050 OVC065 23/21 A3008 RMK A01
KGHB 170035Z AUTO 11018G25KT 9SM FEW013 SCT021 BKN045 23/21 A3008 RMK A01
KGHB 170015Z AUTO 11015G24KT 9SM FEW013 SCT022 BKN041 23/20 A3008 RMK A01
KGHB 162355Z AUTO 10014G22KT 7SM SCT013 BKN023 OVC070 23/21 A3008 RMK A01
KGHB 162335Z AUTO 09013G24KT 9SM SCT014 BKN044 OVC070 22/20 A3008 RMK A01
KGHB 162315Z AUTO 10017G23KT 10SM SCT014 BKN044 OVC090 22/20 A3008 RMK A01
KGHB 162255Z AUTO 10016G24KT 9SM BKN016 BKN024 OVC031 22/20 A3008 RMK A01
KGHB 162235Z AUTO 08018G25KT 8SM SCT016 BKN025 OVC032 22/20 A3008 RMK A01
KGHB 162215Z AUTO 08019G25KT 050V110 9SM SCT015 BKN022 BKN028 22/19 A3009 RMK A01
KGHB 162155Z AUTO 09014G26KT 9SM BKN017 OVC023 22/19 A3009 RMK A01
KGHB 162135Z AUTO 09020G26KT 8SM SCT014 BKN019 OVC030 22/19 A3009 RMK A01
KGHB 162115Z AUTO 08018G27KT 9SM SCT015 BKN030 OVC034 21/19 A3010 RMK A01
KGHB 162055Z AUTO 08017G23KT 9SM SCT015 BKN033 OVC085 21/19 A3010 RMK A01
KGHB 162035Z AUTO 08020G27KT 8SM SCT013 BKN019 OVC034 21/19 A3010 RMK A01
KGHB 162015Z AUTO 08018G26KT 9SM SCT014 BKN021 21/18 A3011 RMK A01
KGHB 161955Z AUTO 08017G25KT 9SM BKN014 OVC020 21/18 A3011 RMK A01
KGHB 161935Z AUTO 08017G24KT 9SM OVC016 20/18 A3012 RMK A01
KGHB 161915Z AUTO 07016G23KT 8SM BKN015 OVC022 20/18 A3012 RMK A01
KGHB 161855Z AUTO 07016G21KT 9SM BKN015 BKN022 20/17 A3013 RMK A01
KGHB 161835Z AUTO 07018G25KT 9SM SCT015 SCT023 SCT029 20/17 A3014 RMK A01
KGHB 161815Z AUTO 08018G25KT 9SM SCT015 BKN022 OVC029 19/17 A3015 RMK A01
KGHB 161755Z AUTO 07018G25KT 10SM SCT015 OVC022 19/17 A3017 RMK A01
KGHB 161735Z AUTO 07016G24KT 10SM OVC015 19/16 A3018 RMK A01
KGHB 161715Z AUTO 07018G24KT 10SM OVC016 19/16 A3018 RMK A01
KGHB 161655Z AUTO 07019G25KT 10SM OVC014 19/16 A3020 RMK A01
KGHB 161635Z AUTO 07019KT OVC014 18/16 A3020 RMK A01
KGHB 161615Z AUTO 07016G23KT 10SM OVC015 18/15 A3021 RMK A01
KGHB 161555Z AUTO 07017G23KT 10SM BKN015 OVC060 18/15 A3021 RMK A01
KGHB 161535Z AUTO 07019KT 10SM BKN015 BKN050 OVC060 18/15 A3021 RMK A01
KGHB 161515Z AUTO 06018KT 10SM BKN015 OVC050 17/15 A3021 RMK A01
KGHB 161455Z AUTO 06017G23KT 10SM OVC015 17/15 A3022 RMK A01
KGHB 161435Z AUTO 06021KT 10SM OVC014 17/14 A3021 RMK A01
KGHB 161415Z AUTO 06019KT 10SM OVC014 17/14 A3022 RMK A01
KGHB 161355Z AUTO 06018KT 10SM OVC014 17/14 A3022 RMK A01
KGHB 161335Z AUTO 06016KT 10SM OVC014 16/14 A3022 RMK A01
KGHB 161315Z AUTO 05017KT 10SM OVC014 16/14 A3021 RMK A01
KGHB 161255Z AUTO 05017KT 10SM OVC015 16/13 A3021 RMK A01
KGHB 161235Z AUTO 05019KT 10SM OVC015 16/13 A3021 RMK A01
KGHB 161215Z AUTO 06016G21KT 10SM OVC015 16/13 A3021 RMK A01
KGHB 161155Z AUTO 05017KT 10SM OVC016 16/13 A3020 RMK A01
KGHB 161135Z AUTO 05015G21KT 10SM OVC016 16/13 A3019 RMK A01
KGHB 161115Z AUTO 06015KT 10SM OVC017 16/13 A3019 RMK A01
KGHB 161055Z AUTO 05016KT 10SM OVC018 16/12 A3019 RMK A01
KGHB 161035Z AUTO 05016KT 10SM OVC019 16/12 A3018 RMK A01
KGHB 161015Z AUTO 06014G19KT 10SM OVC020 16/12 A3019 RMK A01
KGHB 160955Z AUTO 05016KT 10SM OVC021 16/12 A3018 RMK A01
KGHB 160935Z AUTO 05016G22KT 10SM OVC021 16/12 A3019 RMK A01
KGHB 160915Z AUTO 05015KT 10SM OVC022 16/11 A3020 RMK A01
KGHB 160855Z AUTO 06014KT 10SM OVC023 16/11 A3020 RMK A01
KGHB 160835Z AUTO 05014G19KT 10SM OVC024 16/11 A3020 RMK A01
KGHB 160815Z AUTO 05014KT 10SM BKN024 OVC029 16/11 A3021 RMK A01
KGHB 160755Z AUTO 05015G20KT 10SM SCT023 BKN030 OVC075 16/11 A3021 RMK A01
KGHB 160735Z AUTO 05015KT 10SM SCT024 SCT033 OVC080 15/11 A3022 RMK A01
KGHB 160715Z AUTO 06012KT 10SM BKN024 OVC080 16/11 A3022 RMK A01
KGHB 160655Z AUTO 05015KT 10SM BKN023 OVC080 15/11 A3022 RMK A01
KGHB 160635Z AUTO 06016KT 10SM BKN023 OVC080 15/11 A3022 RMK A01
KGHB 160615Z AUTO 05015G21KT 10SM SCT024 OVC080 15/11 A3022 RMK A01
KGHB 160555Z AUTO 05016G21KT 10SM BKN026 OVC070 16/11 A3023 RMK A01
KGHB 160535Z AUTO 04016KT 10SM SCT026 OVC070 16/10 A3023 RMK A01
KGHB 160515Z AUTO 04017KT 10SM SCT027 OVC075 16/10 A3024 RMK A01
KGHB 160455Z AUTO 05016KT 10SM OVC075 16/10 A3023 RMK A01
KGHB 160435Z AUTO 05016KT 10SM OVC075 16/10 A3023 RMK A01
KGHB 160415Z AUTO 05017KT 10SM OVC075 16/10 A3024 RMK A01
KGHB 160355Z AUTO 06014KT 10SM OVC075 15/10 A3024 RMK A01
KGHB 160335Z AUTO 05016KT 10SM OVC075 15/09 A3024 RMK A01
KGHB 160315Z AUTO 05018KT 10SM OVC075 15/09 A3023 RMK A01
KGHB 160255Z AUTO 05017KT 10SM FEW027 OVC075 15/09 A3024 RMK A01
KGHB 160235Z AUTO 04018KT 10SM FEW027 OVC075 15/09 A3023 RMK A01
KGHB 160215Z AUTO 04016G22KT 10SM FEW027 OVC075 15/09 A3023 RMK A01